createdAt,value
2019-03-16T00:00:01.548Z,38.90
2019-03-16T00:01:01.466Z,37.50
2019-03-16T00:02:01.382Z,36.80
2019-03-16T00:03:01.337Z,33.20
2019-03-16T00:04:01.319Z,34.30
2019-03-16T00:05:01.126Z,24.40
2019-03-16T00:06:02.093Z,33.00
2019-03-16T00:07:00.964Z,29.40
2019-03-16T00:08:00.873Z,24.60
2019-03-16T00:09:00.910Z,21.40
2019-03-16T00:10:00.702Z,19.80
2019-03-16T00:11:15.634Z,19.80
2019-03-16T00:12:00.562Z,21.00
2019-03-16T00:13:00.491Z,16.60
2019-03-16T00:14:00.406Z,18.40
2019-03-16T00:15:00.432Z,16.50
2019-03-16T00:16:00.203Z,15.40
2019-03-16T00:17:01.236Z,16.80
2019-03-16T00:18:00.037Z,17.70
2019-03-16T00:18:59.960Z,14.40
2019-03-16T00:19:59.966Z,16.60
2019-03-16T00:20:59.779Z,18.50
2019-03-16T00:21:59.704Z,19.00
2019-03-16T00:22:59.637Z,16.80
2019-03-16T00:23:59.525Z,17.10
2019-03-16T00:24:59.454Z,17.20
2019-03-16T00:25:59.449Z,21.10
2019-03-16T00:26:59.275Z,15.70
2019-03-16T00:27:59.186Z,17.70
2019-03-16T00:28:59.169Z,19.50
2019-03-16T00:29:59.036Z,20.90
2019-03-16T00:30:58.972Z,16.90
2019-03-16T00:31:58.852Z,26.40
2019-03-16T00:32:58.788Z,22.10
2019-03-16T00:33:58.685Z,21.20
2019-03-16T00:34:58.628Z,19.70
2019-03-16T00:35:58.598Z,20.50
2019-03-16T00:36:58.432Z,17.60
2019-03-16T00:37:58.351Z,24.50
2019-03-16T00:38:58.311Z,19.30
2019-03-16T00:39:58.193Z,20.10
2019-03-16T00:40:58.100Z,20.70
2019-03-16T00:41:58.023Z,19.20
2019-03-16T00:42:57.926Z,18.20
2019-03-16T00:43:57.840Z,20.20
2019-03-16T00:44:57.876Z,19.40
2019-03-16T00:45:57.669Z,20.00
2019-03-16T00:46:59.699Z,16.40
2019-03-16T00:47:57.587Z,19.20
2019-03-16T00:48:57.427Z,13.40
2019-03-16T00:49:57.404Z,15.00
2019-03-16T00:50:57.262Z,16.30
2019-03-16T00:51:57.166Z,13.20
2019-03-16T00:52:58.102Z,18.80
2019-03-16T00:53:57.010Z,16.30
2019-03-16T00:54:57.023Z,16.30
2019-03-16T00:55:56.826Z,15.50
2019-03-16T00:56:56.815Z,14.20
2019-03-16T00:57:56.677Z,13.20
2019-03-16T00:58:56.571Z,14.70
2019-03-16T00:59:56.544Z,13.70
2019-03-16T01:00:56.410Z,15.60
2019-03-16T01:01:56.320Z,13.80
2019-03-16T01:02:56.326Z,13.20
2019-03-16T01:03:56.149Z,17.30
2019-03-16T01:04:56.080Z,15.00
2019-03-16T01:05:55.988Z,11.70
2019-03-16T01:06:55.945Z,12.40
2019-03-16T01:07:55.812Z,14.80
2019-03-16T01:08:55.729Z,12.80
2019-03-16T01:09:55.666Z,13.50
2019-03-16T01:10:55.666Z,10.40
2019-03-16T01:11:55.475Z,11.20
2019-03-16T01:12:55.405Z,11.20
2019-03-16T01:13:55.378Z,11.50
2019-03-16T01:14:55.236Z,15.90
2019-03-16T01:15:57.236Z,11.50
2019-03-16T01:16:55.051Z,13.60
2019-03-16T01:17:54.996Z,12.80
2019-03-16T01:18:54.884Z,12.30
2019-03-16T01:19:54.848Z,13.00
2019-03-16T01:20:54.713Z,13.30
2019-03-16T01:21:55.739Z,12.80
2019-03-16T01:22:54.549Z,12.10
2019-03-16T01:23:54.525Z,12.00
2019-03-16T01:24:54.386Z,10.40
2019-03-16T01:25:54.333Z,14.10
2019-03-16T01:26:54.206Z,11.00
2019-03-16T01:28:01.107Z,12.40
2019-03-16T01:28:54.042Z,11.70
2019-03-16T01:29:53.966Z,13.00
2019-03-16T01:30:53.963Z,11.50
2019-03-16T01:31:53.791Z,13.80
2019-03-16T01:32:53.700Z,13.50
2019-03-16T01:34:00.638Z,13.90
2019-03-16T01:34:53.540Z,12.30
2019-03-16T01:35:53.484Z,12.60
2019-03-16T01:36:53.357Z,14.00
2019-03-16T01:37:53.294Z,13.40
2019-03-16T01:38:53.189Z,13.20
2019-03-16T01:39:53.134Z,12.00
2019-03-16T01:40:53.108Z,11.90
2019-03-16T01:41:52.938Z,12.40
2019-03-16T01:42:52.859Z,10.00
2019-03-16T01:43:52.822Z,13.80
2019-03-16T01:44:52.709Z,14.40
2019-03-16T01:45:52.604Z,13.60
2019-03-16T01:46:52.536Z,13.90
2019-03-16T01:47:52.435Z,10.80
2019-03-16T01:48:52.354Z,11.50
2019-03-16T01:49:52.351Z,12.50
2019-03-16T01:50:52.184Z,11.30
2019-03-16T01:51:54.102Z,13.50
2019-03-16T01:52:52.008Z,13.50
2019-03-16T01:53:51.966Z,10.40
2019-03-16T01:54:51.845Z,12.70
2019-03-16T01:55:51.830Z,11.30
2019-03-16T01:56:51.663Z,11.60
2019-03-16T01:57:52.613Z,13.10
2019-03-16T01:58:51.495Z,12.50
2019-03-16T01:59:51.497Z,13.10
2019-03-16T02:00:51.345Z,12.70
2019-03-16T02:01:51.306Z,10.10
2019-03-16T02:02:55.438Z,15.40
2019-03-16T02:03:51.122Z,14.50
2019-03-16T02:04:50.989Z,14.30
2019-03-16T02:05:50.914Z,12.20
2019-03-16T02:06:50.830Z,9.20
2019-03-16T02:07:50.733Z,14.20
2019-03-16T02:08:50.648Z,14.80
2019-03-16T02:09:51.684Z,12.70
2019-03-16T02:10:50.508Z,15.30
2019-03-16T02:11:50.456Z,17.40
2019-03-16T02:12:50.314Z,12.80
2019-03-16T02:13:50.263Z,15.20
2019-03-16T02:14:50.141Z,15.40
2019-03-16T02:15:50.068Z,15.30
2019-03-16T02:16:50.080Z,15.10
2019-03-16T02:17:49.896Z,15.50
2019-03-16T02:18:49.810Z,14.90
2019-03-16T02:19:49.799Z,16.20
2019-03-16T02:20:49.658Z,12.70
2019-03-16T02:21:49.688Z,16.90
2019-03-16T02:22:49.492Z,11.90
2019-03-16T02:23:49.415Z,15.20
2019-03-16T02:24:49.298Z,13.70
2019-03-16T02:25:49.229Z,14.40
2019-03-16T02:26:50.169Z,12.60
2019-03-16T02:27:49.044Z,14.30
2019-03-16T02:28:48.953Z,16.40
2019-03-16T02:29:48.940Z,14.80
2019-03-16T02:30:48.797Z,13.80
2019-03-16T02:31:48.752Z,13.70
2019-03-16T02:32:48.615Z,14.40
2019-03-16T02:33:48.562Z,15.00
2019-03-16T02:34:48.444Z,17.60
2019-03-16T02:35:48.374Z,15.60
2019-03-16T02:36:48.376Z,16.30
2019-03-16T02:37:48.209Z,14.60
2019-03-16T02:38:48.118Z,15.00
2019-03-16T02:39:48.094Z,14.10
2019-03-16T02:40:47.953Z,12.30
2019-03-16T02:41:47.899Z,13.80
2019-03-16T02:42:47.770Z,12.70
2019-03-16T02:43:47.706Z,12.50
2019-03-16T02:44:47.600Z,10.70
2019-03-16T02:45:47.558Z,10.90
2019-03-16T02:46:47.432Z,14.70
2019-03-16T02:47:47.429Z,15.00
2019-03-16T02:48:47.259Z,11.20
2019-03-16T02:49:47.239Z,13.50
2019-03-16T02:50:47.121Z,16.00
2019-03-16T02:51:47.045Z,12.00
2019-03-16T02:52:49.949Z,12.00
2019-03-16T02:53:46.854Z,14.00
2019-03-16T02:54:46.753Z,11.90
2019-03-16T02:55:50.182Z,11.60
2019-03-16T02:56:46.582Z,12.20
2019-03-16T02:57:46.574Z,12.30
2019-03-16T02:58:46.412Z,12.80
2019-03-16T02:59:46.382Z,12.80
2019-03-16T03:00:46.254Z,10.70
2019-03-16T03:01:46.168Z,10.10
2019-03-16T03:02:46.100Z,14.40
2019-03-16T03:03:45.989Z,12.80
2019-03-16T03:04:46.699Z,13.10
2019-03-16T03:05:45.987Z,11.80
2019-03-16T03:06:45.746Z,10.90
2019-03-16T03:07:52.697Z,12.20
2019-03-16T03:08:45.562Z,10.60
2019-03-16T03:09:45.538Z,13.50
2019-03-16T03:10:45.406Z,13.50
2019-03-16T03:11:45.307Z,12.80
2019-03-16T03:12:46.273Z,13.10
2019-03-16T03:13:45.152Z,10.80
2019-03-16T03:14:45.057Z,13.20
2019-03-16T03:15:45.092Z,13.60
2019-03-16T03:16:44.885Z,17.70
2019-03-16T03:17:44.815Z,18.10
2019-03-16T03:18:49.164Z,17.90
2019-03-16T03:19:44.632Z,19.80
2019-03-16T03:20:44.558Z,20.90
2019-03-16T03:21:44.490Z,19.70
2019-03-16T03:22:44.378Z,21.70
2019-03-16T03:23:44.401Z,21.50
2019-03-16T03:24:44.866Z,21.10
2019-03-16T03:25:44.240Z,21.60
2019-03-16T03:26:44.038Z,18.60
2019-03-16T03:27:44.017Z,20.30
2019-03-16T03:28:43.870Z,26.30
2019-03-16T03:29:43.830Z,23.30
2019-03-16T03:30:43.699Z,22.20
2019-03-16T03:31:43.632Z,26.00
2019-03-16T03:32:43.572Z,25.30
2019-03-16T03:33:58.476Z,24.80
2019-03-16T03:34:43.387Z,20.40
2019-03-16T03:35:43.356Z,17.60
2019-03-16T03:36:43.208Z,19.30
2019-03-16T03:37:43.122Z,18.30
2019-03-16T03:38:43.067Z,19.30
2019-03-16T03:39:42.943Z,15.20
2019-03-16T03:40:42.862Z,17.00
2019-03-16T03:41:42.825Z,19.10
2019-03-16T03:42:42.687Z,18.00
2019-03-16T03:43:42.607Z,17.40
2019-03-16T03:44:42.601Z,16.90
2019-03-16T03:45:42.449Z,14.90
2019-03-16T03:46:42.362Z,13.60
2019-03-16T03:47:42.263Z,15.80
2019-03-16T03:48:51.137Z,16.10
2019-03-16T03:49:42.093Z,14.70
2019-03-16T03:50:42.013Z,14.10
2019-03-16T03:51:41.941Z,15.80
2019-03-16T03:52:41.938Z,14.00
2019-03-16T03:53:41.755Z,16.70
2019-03-16T03:54:42.769Z,18.20
2019-03-16T03:55:41.585Z,16.40
2019-03-16T03:56:41.512Z,17.50
2019-03-16T03:57:41.458Z,11.70
2019-03-16T03:58:41.345Z,17.40
2019-03-16T03:59:41.248Z,16.20
2019-03-16T04:00:41.173Z,17.80
2019-03-16T04:01:41.103Z,17.30
2019-03-16T04:02:41.084Z,15.60
2019-03-16T04:03:40.914Z,17.90
2019-03-16T04:04:40.896Z,16.50
2019-03-16T04:05:40.737Z,16.00
2019-03-16T04:06:40.665Z,15.80
2019-03-16T04:07:40.615Z,18.00
2019-03-16T04:08:40.488Z,17.40
2019-03-16T04:09:40.415Z,18.60
2019-03-16T04:10:40.423Z,17.60
2019-03-16T04:11:40.250Z,18.00
2019-03-16T04:12:41.256Z,18.30
2019-03-16T04:13:40.067Z,14.70
2019-03-16T04:14:40.043Z,18.00
2019-03-16T04:15:39.892Z,15.80
2019-03-16T04:16:39.821Z,15.20
2019-03-16T04:17:39.756Z,17.90
2019-03-16T04:18:39.645Z,14.00
2019-03-16T04:19:39.561Z,13.80
2019-03-16T04:20:39.570Z,18.10
2019-03-16T04:21:39.409Z,17.50
2019-03-16T04:22:39.303Z,16.40
2019-03-16T04:23:39.285Z,18.40
2019-03-16T04:24:39.133Z,17.60
2019-03-16T04:25:39.047Z,20.70
2019-03-16T04:26:39.043Z,19.00
2019-03-16T04:27:38.882Z,17.70
2019-03-16T04:28:38.794Z,22.90
2019-03-16T04:29:38.861Z,19.40
2019-03-16T04:30:38.627Z,16.00
2019-03-16T04:31:38.554Z,16.00
2019-03-16T04:32:38.539Z,19.50
2019-03-16T04:33:38.376Z,16.40
2019-03-16T04:34:38.336Z,17.80
2019-03-16T04:35:38.198Z,16.60
2019-03-16T04:36:38.134Z,17.40
2019-03-16T04:37:38.050Z,20.20
2019-03-16T04:38:37.954Z,20.00
2019-03-16T04:39:37.861Z,18.40
2019-03-16T04:40:37.865Z,18.00
2019-03-16T04:41:37.706Z,17.00
2019-03-16T04:42:37.616Z,18.20
2019-03-16T04:43:37.586Z,16.90
2019-03-16T04:44:37.443Z,19.00
2019-03-16T04:45:37.361Z,16.40
2019-03-16T04:46:37.291Z,16.10
2019-03-16T04:47:37.197Z,17.30
2019-03-16T04:48:38.127Z,17.10
2019-03-16T04:49:37.016Z,16.90
2019-03-16T04:50:37.013Z,18.40
2019-03-16T04:51:36.845Z,19.10
2019-03-16T04:52:36.778Z,17.40
2019-03-16T04:53:36.729Z,19.30
2019-03-16T04:54:36.601Z,15.80
2019-03-16T04:55:36.513Z,14.20
2019-03-16T04:56:36.550Z,17.50
2019-03-16T04:57:36.362Z,15.50
2019-03-16T04:58:36.253Z,18.50
2019-03-16T04:59:37.277Z,17.90
2019-03-16T05:00:36.083Z,16.50
2019-03-16T05:01:36.002Z,18.00
2019-03-16T05:02:36.000Z,13.60
2019-03-16T05:03:35.845Z,17.40
2019-03-16T05:04:42.544Z,17.40
2019-03-16T05:05:35.660Z,15.10
2019-03-16T05:06:36.619Z,16.80
2019-03-16T05:07:35.509Z,17.00
2019-03-16T05:08:35.499Z,14.90
2019-03-16T05:09:35.323Z,16.80
2019-03-16T05:10:35.307Z,16.50
2019-03-16T05:11:35.153Z,18.10
2019-03-16T05:12:35.146Z,13.60
2019-03-16T05:13:34.984Z,16.90
2019-03-16T05:14:34.926Z,22.40
2019-03-16T05:15:34.817Z,16.90
2019-03-16T05:16:34.731Z,14.70
2019-03-16T05:17:35.693Z,17.30
2019-03-16T05:18:34.573Z,18.60
2019-03-16T05:19:34.481Z,14.90
2019-03-16T05:20:34.397Z,15.60
2019-03-16T05:21:34.310Z,16.30
2019-03-16T05:22:34.236Z,14.90
2019-03-16T05:23:34.174Z,15.70
2019-03-16T05:24:34.066Z,15.70
2019-03-16T05:25:33.969Z,15.20
2019-03-16T05:26:33.984Z,17.80
2019-03-16T05:27:33.817Z,13.10
2019-03-16T05:28:33.721Z,13.90
2019-03-16T05:29:33.699Z,13.90
2019-03-16T05:30:33.558Z,13.90
2019-03-16T05:31:33.465Z,16.80
2019-03-16T05:32:33.445Z,13.60
2019-03-16T05:33:33.293Z,13.10
2019-03-16T05:34:33.208Z,13.70
2019-03-16T05:35:34.152Z,14.50
2019-03-16T05:36:33.043Z,12.70
2019-03-16T05:37:32.976Z,12.60
2019-03-16T05:38:32.956Z,15.70
2019-03-16T05:39:32.883Z,12.20
2019-03-16T05:40:32.700Z,12.20
2019-03-16T05:41:32.662Z,13.60
2019-03-16T05:42:32.552Z,12.00
2019-03-16T05:43:32.570Z,12.90
2019-03-16T05:44:32.367Z,12.90
2019-03-16T05:45:32.378Z,11.10
2019-03-16T05:46:32.199Z,10.80
2019-03-16T05:47:33.146Z,13.30
2019-03-16T05:48:32.037Z,13.00
2019-03-16T05:49:32.000Z,13.80
2019-03-16T05:50:31.863Z,12.10
2019-03-16T05:51:31.806Z,13.20
2019-03-16T05:52:31.707Z,12.30
2019-03-16T05:53:32.641Z,12.90
2019-03-16T05:54:31.516Z,13.10
2019-03-16T05:55:31.534Z,12.90
2019-03-16T05:56:31.344Z,13.60
2019-03-16T05:57:31.366Z,11.20
2019-03-16T05:58:31.189Z,15.30
2019-03-16T05:59:31.140Z,13.00
2019-03-16T06:00:31.014Z,14.20
2019-03-16T06:01:30.951Z,10.70
2019-03-16T06:02:30.854Z,12.50
2019-03-16T06:03:30.865Z,9.90
2019-03-16T06:04:30.669Z,12.00
2019-03-16T06:05:30.601Z,13.00
2019-03-16T06:06:30.503Z,12.80
2019-03-16T06:07:30.518Z,10.80
2019-03-16T06:08:30.332Z,9.20
2019-03-16T06:09:30.246Z,11.90
2019-03-16T06:10:32.169Z,14.00
2019-03-16T06:11:30.077Z,11.60
2019-03-16T06:12:30.018Z,9.30
2019-03-16T06:13:29.936Z,13.60
2019-03-16T06:14:29.825Z,12.60
2019-03-16T06:15:29.739Z,16.30
2019-03-16T06:16:31.668Z,10.70
2019-03-16T06:17:29.581Z,10.60
2019-03-16T06:18:29.498Z,9.90
2019-03-16T06:19:29.434Z,11.20
2019-03-16T06:20:29.317Z,12.80
2019-03-16T06:21:29.244Z,11.80
2019-03-16T06:22:30.177Z,10.90
2019-03-16T06:23:29.075Z,12.50
2019-03-16T06:24:28.997Z,13.40
2019-03-16T06:25:28.968Z,10.80
2019-03-16T06:26:28.812Z,13.00
2019-03-16T06:27:28.723Z,11.10
2019-03-16T06:28:28.709Z,11.70
2019-03-16T06:29:28.563Z,10.10
2019-03-16T06:30:28.508Z,13.10
2019-03-16T06:31:28.384Z,13.10
2019-03-16T06:32:28.401Z,10.70
2019-03-16T06:33:28.241Z,11.50
2019-03-16T06:34:29.139Z,12.40
2019-03-16T06:35:29.432Z,12.00
2019-03-16T06:36:28.023Z,10.90
2019-03-16T06:37:27.881Z,11.40
2019-03-16T06:38:27.861Z,10.90
2019-03-16T06:39:27.710Z,10.70
2019-03-16T06:40:27.641Z,14.20
2019-03-16T06:41:27.549Z,11.50
2019-03-16T06:42:27.554Z,11.50
2019-03-16T06:43:27.393Z,10.40
2019-03-16T06:44:27.358Z,10.80
2019-03-16T06:45:27.208Z,9.30
2019-03-16T06:46:27.168Z,9.00
2019-03-16T06:47:27.040Z,8.80
2019-03-16T06:48:27.084Z,7.80
2019-03-16T06:49:26.867Z,7.70
2019-03-16T06:50:26.898Z,7.30
2019-03-16T06:51:26.695Z,7.90
2019-03-16T06:52:27.719Z,9.60
2019-03-16T06:53:26.540Z,10.70
2019-03-16T06:54:26.505Z,10.10
2019-03-16T06:55:26.368Z,7.70
2019-03-16T06:56:26.314Z,9.70
2019-03-16T06:57:26.192Z,7.30
2019-03-16T06:58:27.181Z,9.70
2019-03-16T06:59:26.031Z,7.20
2019-03-16T07:00:26.036Z,8.40
2019-03-16T07:01:25.851Z,8.50
2019-03-16T07:02:25.849Z,6.60
2019-03-16T07:03:25.709Z,8.30
2019-03-16T07:04:25.658Z,9.10
2019-03-16T07:05:37.514Z,7.20
2019-03-16T07:06:25.467Z,6.50
2019-03-16T07:07:25.346Z,8.30
2019-03-16T07:08:25.347Z,7.10
2019-03-16T07:09:25.182Z,7.30
2019-03-16T07:10:25.105Z,6.90
2019-03-16T07:11:25.008Z,6.70
2019-03-16T07:12:24.991Z,7.70
2019-03-16T07:13:24.858Z,7.30
2019-03-16T07:14:24.754Z,7.60
2019-03-16T07:15:31.650Z,6.10
2019-03-16T07:16:24.593Z,7.70
2019-03-16T07:17:24.511Z,6.30
2019-03-16T07:18:24.463Z,5.50
2019-03-16T07:19:24.333Z,6.10
2019-03-16T07:20:24.259Z,5.40
2019-03-16T07:21:24.166Z,5.60
2019-03-16T07:22:24.090Z,5.50
2019-03-16T07:23:24.126Z,6.70
2019-03-16T07:24:23.911Z,6.60
2019-03-16T07:25:23.828Z,5.30
2019-03-16T07:26:23.759Z,5.20
2019-03-16T07:27:26.431Z,5.70
2019-03-16T07:28:23.591Z,5.80
2019-03-16T07:29:23.578Z,6.30
2019-03-16T07:30:23.414Z,5.80
2019-03-16T07:31:23.323Z,4.80
2019-03-16T07:32:23.317Z,7.90
2019-03-16T07:33:23.171Z,4.80
2019-03-16T07:34:23.079Z,4.90
2019-03-16T07:35:23.130Z,4.40
2019-03-16T07:36:22.906Z,6.40
2019-03-16T07:37:22.822Z,5.40
2019-03-16T07:38:22.951Z,3.70
2019-03-16T07:39:22.658Z,3.40
2019-03-16T07:40:22.830Z,2.60
2019-03-16T07:41:22.499Z,4.20
2019-03-16T07:42:22.641Z,3.80
2019-03-16T07:43:22.356Z,2.30
2019-03-16T07:44:32.577Z,3.40
2019-03-16T07:45:22.152Z,2.30
2019-03-16T07:46:23.283Z,1.90
2019-03-16T07:47:21.985Z,2.10
2019-03-16T07:48:21.975Z,1.90
2019-03-16T07:49:21.841Z,2.00
2019-03-16T07:50:21.740Z,2.40
2019-03-16T07:51:21.682Z,2.00
2019-03-16T07:52:21.568Z,2.30
2019-03-16T07:53:21.481Z,2.20
2019-03-16T07:54:21.528Z,1.50
2019-03-16T07:55:21.318Z,1.60
2019-03-16T07:56:21.236Z,2.30
2019-03-16T07:57:39.499Z,1.80
2019-03-16T07:58:21.065Z,1.20
2019-03-16T07:59:20.992Z,2.50
2019-03-16T08:00:21.053Z,1.40
2019-03-16T08:01:20.813Z,2.30
2019-03-16T08:02:20.753Z,2.10
2019-03-16T08:03:20.656Z,3.40
2019-03-16T08:04:20.591Z,2.60
2019-03-16T08:05:20.592Z,2.50
2019-03-16T08:06:20.396Z,2.60
2019-03-16T08:07:20.319Z,2.30
2019-03-16T08:08:20.261Z,3.50
2019-03-16T08:09:20.195Z,4.70
2019-03-16T08:10:20.078Z,2.60
2019-03-16T08:11:20.077Z,3.70
2019-03-16T08:12:19.898Z,2.10
2019-03-16T08:13:19.814Z,2.10
2019-03-16T08:14:19.752Z,1.60
2019-03-16T08:15:19.652Z,3.10
2019-03-16T08:16:19.577Z,1.80
2019-03-16T08:17:19.504Z,2.70
2019-03-16T08:18:19.411Z,4.40
2019-03-16T08:19:19.329Z,2.90
2019-03-16T08:20:19.321Z,2.20
2019-03-16T08:21:19.149Z,2.30
2019-03-16T08:22:19.132Z,3.30
2019-03-16T08:23:18.980Z,2.20
2019-03-16T08:24:18.909Z,1.40
2019-03-16T08:25:18.844Z,2.00
2019-03-16T08:26:18.732Z,2.50
2019-03-16T08:27:18.654Z,2.30
2019-03-16T08:28:18.660Z,3.50
2019-03-16T08:29:18.508Z,2.50
2019-03-16T08:30:18.401Z,3.20
2019-03-16T08:31:18.375Z,2.60
2019-03-16T08:32:18.245Z,2.30
2019-03-16T08:33:18.187Z,2.70
2019-03-16T08:34:18.097Z,1.60
2019-03-16T08:35:17.984Z,2.00
2019-03-16T08:36:18.004Z,2.40
2019-03-16T08:37:17.821Z,1.90
2019-03-16T08:38:17.733Z,2.10
2019-03-16T08:39:17.670Z,2.80
2019-03-16T08:40:17.566Z,3.10
2019-03-16T08:41:17.628Z,4.20
2019-03-16T08:42:17.414Z,2.20
2019-03-16T08:43:17.437Z,3.00
2019-03-16T08:44:17.258Z,3.60
2019-03-16T08:45:17.171Z,2.10
2019-03-16T08:46:17.253Z,4.30
2019-03-16T08:47:17.008Z,2.50
2019-03-16T08:48:22.789Z,3.80
2019-03-16T08:49:16.906Z,2.20
2019-03-16T08:50:16.738Z,2.50
2019-03-16T08:51:16.653Z,3.60
2019-03-16T08:52:16.679Z,3.10
2019-03-16T08:53:16.483Z,2.70
2019-03-16T08:54:16.503Z,3.10
2019-03-16T08:55:16.322Z,3.30
2019-03-16T08:56:16.297Z,3.90
2019-03-16T08:57:16.156Z,3.00
2019-03-16T08:58:16.075Z,3.60
2019-03-16T08:59:15.985Z,4.00
2019-03-16T09:00:15.943Z,3.40
2019-03-16T09:01:15.814Z,5.10
2019-03-16T09:02:15.733Z,3.80
2019-03-16T09:03:15.727Z,2.50
2019-03-16T09:04:15.583Z,3.30
2019-03-16T09:05:15.485Z,4.20
2019-03-16T09:06:15.542Z,4.50
2019-03-16T09:07:15.327Z,2.20
2019-03-16T09:08:15.351Z,5.60
2019-03-16T09:09:15.147Z,4.70
2019-03-16T09:10:15.080Z,5.40
2019-03-16T09:11:15.164Z,5.90
2019-03-16T09:12:14.899Z,4.60
2019-03-16T09:13:14.814Z,4.30
2019-03-16T09:14:14.776Z,3.60
2019-03-16T09:15:14.668Z,2.80
2019-03-16T09:16:14.566Z,4.20
2019-03-16T09:17:14.489Z,3.60
2019-03-16T09:18:14.597Z,4.80
2019-03-16T09:19:14.312Z,3.40
2019-03-16T09:20:14.250Z,4.00
2019-03-16T09:21:14.148Z,4.50
2019-03-16T09:22:14.212Z,3.50
2019-03-16T09:23:13.993Z,3.50
2019-03-16T09:24:14.021Z,4.80
2019-03-16T09:25:13.827Z,2.20
2019-03-16T09:26:13.731Z,3.90
2019-03-16T09:27:13.838Z,3.60
2019-03-16T09:28:18.745Z,4.20
2019-03-16T09:29:15.107Z,6.10
2019-03-16T09:30:13.476Z,3.70
2019-03-16T09:31:13.319Z,3.20
2019-03-16T09:32:13.246Z,3.60
2019-03-16T09:33:13.171Z,4.10
2019-03-16T09:34:13.473Z,3.00
2019-03-16T09:35:12.999Z,2.40
2019-03-16T09:36:12.908Z,4.00
2019-03-16T09:37:12.880Z,3.30
2019-03-16T09:38:12.752Z,3.10
2019-03-16T09:39:12.653Z,4.30
2019-03-16T09:40:12.742Z,3.60
2019-03-16T09:41:12.484Z,6.30
2019-03-16T09:42:12.502Z,4.00
2019-03-16T09:43:12.350Z,3.50
2019-03-16T09:44:12.311Z,4.00
2019-03-16T09:45:12.168Z,3.40
2019-03-16T09:46:12.083Z,3.10
2019-03-16T09:47:12.125Z,2.50
2019-03-16T09:48:11.910Z,3.50
2019-03-16T09:49:11.823Z,2.90
2019-03-16T09:50:11.780Z,2.80
2019-03-16T09:51:11.656Z,4.30
2019-03-16T09:52:11.750Z,3.90
2019-03-16T09:53:11.494Z,3.60
2019-03-16T09:54:11.557Z,3.80
2019-03-16T09:55:11.337Z,2.20
2019-03-16T09:56:11.244Z,3.70
2019-03-16T09:57:11.378Z,4.80
2019-03-16T09:58:11.082Z,4.50
2019-03-16T09:59:11.004Z,2.40
2019-03-16T10:00:10.931Z,3.50
2019-03-16T10:01:10.838Z,3.20
2019-03-16T10:02:10.795Z,2.10
2019-03-16T10:03:10.671Z,3.00
2019-03-16T10:04:10.590Z,2.80
2019-03-16T10:05:10.550Z,3.10
2019-03-16T10:06:10.530Z,2.20
2019-03-16T10:07:10.343Z,2.50
2019-03-16T10:08:10.349Z,2.50
2019-03-16T10:09:10.185Z,2.50
2019-03-16T10:10:10.178Z,3.50
2019-03-16T10:11:10.003Z,2.50
2019-03-16T10:12:10.039Z,2.90
2019-03-16T10:13:09.844Z,2.50
2019-03-16T10:14:09.776Z,1.80
2019-03-16T10:15:09.700Z,3.90
2019-03-16T10:16:09.676Z,1.60
2019-03-16T10:17:09.525Z,2.80
2019-03-16T10:18:09.485Z,1.50
2019-03-16T10:19:09.349Z,3.30
2019-03-16T10:20:09.322Z,2.60
2019-03-16T10:21:09.196Z,2.90
2019-03-16T10:22:09.204Z,2.00
2019-03-16T10:23:09.111Z,2.90
2019-03-16T10:24:08.949Z,2.40
2019-03-16T10:25:08.888Z,2.00
2019-03-16T10:26:08.825Z,3.70
2019-03-16T10:27:08.697Z,2.00
2019-03-16T10:28:08.611Z,3.00
2019-03-16T10:29:08.639Z,2.60
2019-03-16T10:30:08.477Z,1.40
2019-03-16T10:31:08.368Z,1.30
2019-03-16T10:32:08.360Z,1.10
2019-03-16T10:33:11.023Z,1.00
2019-03-16T10:34:08.120Z,2.30
2019-03-16T10:35:08.068Z,2.40
2019-03-16T10:36:07.978Z,1.50
2019-03-16T10:37:07.872Z,3.40
2019-03-16T10:38:07.882Z,2.00
2019-03-16T10:39:07.710Z,2.00
2019-03-16T10:40:07.709Z,2.00
2019-03-16T10:41:07.562Z,1.40
2019-03-16T10:42:07.502Z,2.30
2019-03-16T10:43:07.396Z,3.10
2019-03-16T10:44:07.426Z,1.70
2019-03-16T10:45:07.233Z,2.70
2019-03-16T10:46:08.505Z,2.60
2019-03-16T10:47:07.063Z,3.60
2019-03-16T10:48:07.030Z,2.50
2019-03-16T10:49:06.900Z,3.30
2019-03-16T10:50:06.816Z,2.20
2019-03-16T10:51:06.741Z,2.20
2019-03-16T10:52:07.674Z,2.00
2019-03-16T10:53:06.563Z,2.40
2019-03-16T10:54:06.566Z,2.10
2019-03-16T10:55:06.400Z,2.80
2019-03-16T10:56:06.403Z,2.20
2019-03-16T10:57:06.236Z,3.20
2019-03-16T10:58:06.161Z,2.60
2019-03-16T10:59:06.081Z,3.20
2019-03-16T11:00:05.997Z,2.40
2019-03-16T11:01:05.918Z,2.90
2019-03-16T11:02:05.827Z,4.50
2019-03-16T11:03:07.761Z,3.00
2019-03-16T11:04:05.669Z,1.30
2019-03-16T11:05:05.579Z,3.50
2019-03-16T11:06:05.548Z,1.90
2019-03-16T11:07:05.414Z,2.90
2019-03-16T11:08:05.336Z,3.40
2019-03-16T11:09:05.256Z,3.70
2019-03-16T11:10:05.175Z,2.30
2019-03-16T11:11:05.098Z,3.00
2019-03-16T11:12:05.015Z,3.00
2019-03-16T11:13:04.930Z,2.40
2019-03-16T11:14:04.846Z,4.20
2019-03-16T11:15:04.772Z,3.60
2019-03-16T11:16:04.765Z,3.30
2019-03-16T11:17:04.590Z,2.70
2019-03-16T11:18:04.518Z,3.70
2019-03-16T11:19:04.428Z,3.00
2019-03-16T11:20:04.345Z,2.70
2019-03-16T11:21:04.292Z,4.20
2019-03-16T11:22:04.182Z,2.00
2019-03-16T11:23:04.101Z,3.90
2019-03-16T11:24:04.107Z,3.20
2019-03-16T11:25:03.933Z,4.30
2019-03-16T11:26:03.870Z,3.50
2019-03-16T11:27:05.874Z,5.40
2019-03-16T11:28:03.709Z,6.20
2019-03-16T11:29:09.005Z,3.30
2019-03-16T11:30:03.538Z,3.20
2019-03-16T11:31:03.458Z,3.50
2019-03-16T11:32:03.364Z,5.00
2019-03-16T11:33:03.351Z,3.80
2019-03-16T11:34:03.196Z,3.80
2019-03-16T11:35:03.112Z,3.40
2019-03-16T11:36:03.249Z,3.10
2019-03-16T11:37:02.979Z,4.80
2019-03-16T11:38:02.867Z,3.40
2019-03-16T11:39:02.832Z,2.70
2019-03-16T11:40:02.702Z,3.00
2019-03-16T11:41:02.629Z,3.20
2019-03-16T11:42:02.647Z,3.30
2019-03-16T11:43:02.455Z,3.60
2019-03-16T11:44:02.367Z,2.10
2019-03-16T11:45:02.464Z,2.20
2019-03-16T11:46:02.225Z,4.50
2019-03-16T11:47:02.119Z,2.30
2019-03-16T11:48:02.072Z,4.30
2019-03-16T11:49:01.962Z,3.20
2019-03-16T11:50:01.875Z,3.60
2019-03-16T11:51:01.917Z,2.70
2019-03-16T11:52:01.782Z,2.90
2019-03-16T11:53:01.625Z,2.30
2019-03-16T11:54:01.704Z,3.70
2019-03-16T11:55:01.459Z,2.50
2019-03-16T11:56:01.393Z,3.60
2019-03-16T11:57:01.362Z,3.10
2019-03-16T11:58:01.220Z,2.80
2019-03-16T11:59:01.140Z,2.50
2019-03-16T12:00:01.076Z,3.10
2019-03-16T12:01:00.978Z,2.60
2019-03-16T12:02:05.293Z,3.30
2019-03-16T12:03:00.894Z,2.40
2019-03-16T12:04:00.726Z,3.50
2019-03-16T12:05:00.642Z,2.90
2019-03-16T12:06:00.756Z,1.50
2019-03-16T12:07:00.483Z,2.00
2019-03-16T12:08:00.387Z,2.30
2019-03-16T12:09:00.370Z,2.70
2019-03-16T12:10:00.220Z,2.40
2019-03-16T12:11:00.176Z,3.00
2019-03-16T12:12:00.123Z,3.70
2019-03-16T12:12:59.973Z,2.40
2019-03-16T12:13:59.992Z,3.50
2019-03-16T12:14:59.817Z,3.40
2019-03-16T12:15:59.734Z,2.30
2019-03-16T12:16:59.690Z,3.90
2019-03-16T12:17:59.559Z,3.00
2019-03-16T12:18:59.571Z,2.70
2019-03-16T12:19:59.394Z,3.60
2019-03-16T12:20:59.443Z,3.60
2019-03-16T12:21:59.248Z,5.10
2019-03-16T12:22:59.152Z,3.10
2019-03-16T12:23:59.099Z,2.20
2019-03-16T12:24:58.984Z,3.60
2019-03-16T12:25:58.909Z,3.20
2019-03-16T12:26:58.848Z,2.50
2019-03-16T12:27:58.740Z,2.60
2019-03-16T12:28:58.873Z,2.70
2019-03-16T12:29:58.570Z,1.80
2019-03-16T12:30:58.491Z,1.80
2019-03-16T12:31:58.424Z,2.60
2019-03-16T12:32:58.332Z,3.20
2019-03-16T12:33:58.279Z,2.10
2019-03-16T12:34:58.167Z,2.20
2019-03-16T12:35:58.077Z,3.00
2019-03-16T12:36:58.127Z,2.70
2019-03-16T12:37:57.909Z,2.40
2019-03-16T12:38:57.826Z,2.50
2019-03-16T12:39:57.753Z,2.40
2019-03-16T12:40:57.664Z,3.00
2019-03-16T12:41:57.589Z,2.80
2019-03-16T12:42:57.513Z,10.30
2019-03-16T12:43:58.224Z,3.20
2019-03-16T12:44:57.327Z,3.00
2019-03-16T12:45:57.334Z,3.10
2019-03-16T12:46:57.173Z,3.40
2019-03-16T12:47:57.086Z,2.80
2019-03-16T12:48:57.155Z,3.70
2019-03-16T12:49:56.911Z,2.90
2019-03-16T12:50:56.848Z,2.50
2019-03-16T12:51:56.764Z,3.40
2019-03-16T12:52:56.771Z,2.40
2019-03-16T12:53:56.587Z,3.50
2019-03-16T12:54:56.517Z,2.30
2019-03-16T12:55:56.583Z,3.30
2019-03-16T12:56:56.347Z,2.90
2019-03-16T12:57:56.261Z,2.80
2019-03-16T12:58:56.196Z,3.80
2019-03-16T12:59:56.093Z,3.40
2019-03-16T13:00:56.075Z,3.50
2019-03-16T13:01:55.938Z,3.90
2019-03-16T13:02:55.848Z,2.70
2019-03-16T13:04:02.746Z,2.70